Time;durP1;ratioP1;P1;durP2;ratioP2;P2;SDS_P1;SDS_P2;PMS_P1;PMS_P2;Temp;Humidity;BMP_temperature;BMP_pressure;BME280_temperature;BME280_humidity;BME280_pressure;Samples;Min_cycle;Max_cycle;Signal;HPM_P1;HPM_P2
2021/05/21 00:02:18;;;;;;;0.68;0.60;;;15.90;99.90;;;;;;5064609;28;20119;-46
2021/05/21 00:04:44;;;;;;;1.75;0.55;;;15.90;99.90;;;;;;5065745;28;20103;-49
2021/05/21 00:07:10;;;;;;;3.28;0.80;;;15.80;99.90;;;;;;5064304;28;20032;-47
2021/05/21 00:09:36;;;;;;;0.43;0.43;;;15.80;99.90;;;;;;5064002;28;20486;-47
2021/05/21 00:12:02;;;;;;;0.75;0.60;;;15.80;99.90;;;;;;5064167;28;20041;-47
2021/05/21 00:14:29;;;;;;;0.55;0.47;;;15.80;99.90;;;;;;5065049;28;20044;-48
2021/05/21 00:16:54;;;;;;;0.40;0.40;;;15.80;99.90;;;;;;5064148;28;20735;-46
2021/05/21 00:19:20;;;;;;;0.60;0.40;;;15.70;99.90;;;;;;5064088;28;20029;-47
2021/05/21 00:21:46;;;;;;;0.50;0.50;;;15.70;99.90;;;;;;5065097;28;20372;-49
2021/05/21 00:24:12;;;;;;;0.73;0.73;;;15.70;99.90;;;;;;5064356;28;20495;-48
2021/05/21 00:26:39;;;;;;;0.75;0.55;;;15.60;99.90;;;;;;5064748;28;20024;-47
2021/05/21 00:29:06;;;;;;;0.75;0.40;;;15.60;99.90;;;;;;5064433;28;20028;-47
2021/05/21 00:31:32;;;;;;;0.85;0.55;;;15.60;99.90;;;;;;5065277;28;20044;-47
2021/05/21 00:34:00;;;;;;;0.40;0.40;;;15.60;99.90;;;;;;5064585;28;20052;-50
2021/05/21 00:36:27;;;;;;;0.47;0.30;;;15.60;99.90;;;;;;5064027;28;20074;-49
2021/05/21 00:38:53;;;;;;;0.38;0.38;;;15.70;99.90;;;;;;5064755;28;20078;-48
2021/05/21 00:41:22;;;;;;;0.40;0.40;;;15.70;99.90;;;;;;5063526;28;20031;-49
2021/05/21 00:43:54;;;;;;;1.23;0.55;;;15.80;99.90;;;;;;5064644;28;20108;-47
2021/05/21 00:46:20;;;;;;;0.40;0.40;;;15.80;99.90;;;;;;5064542;28;20028;-47
2021/05/21 00:48:45;;;;;;;0.40;0.40;;;15.80;99.90;;;;;;5064083;28;20033;-46
2021/05/21 00:51:11;;;;;;;0.57;0.47;;;15.80;99.90;;;;;;5064105;28;20426;-49
2021/05/21 00:53:37;;;;;;;1.17;0.50;;;15.70;99.90;;;;;;5064751;28;20116;-47
2021/05/21 00:56:04;;;;;;;2.13;0.57;;;15.80;99.90;;;;;;5064105;28;20082;-49
2021/05/21 00:58:30;;;;;;;0.50;0.50;;;15.70;99.90;;;;;;5063202;28;20422;-48
2021/05/21 01:00:57;;;;;;;0.68;0.47;;;15.70;99.90;;;;;;5059868;28;20457;-49
2021/05/21 01:03:23;;;;;;;0.52;0.50;;;15.70;99.90;;;;;;5063034;28;20040;-49
2021/05/21 01:05:49;;;;;;;0.57;0.57;;;15.70;99.90;;;;;;5044866;28;20093;-45
2021/05/21 01:08:16;;;;;;;0.60;0.50;;;15.70;99.90;;;;;;5044938;28;20261;-47
2021/05/21 01:10:42;;;;;;;0.75;0.40;;;15.70;99.90;;;;;;5045051;28;20033;-48
2021/05/21 01:13:08;;;;;;;1.02;0.50;;;15.70;99.90;;;;;;5047435;28;20035;-50
2021/05/21 01:15:40;;;;;;;0.95;0.40;;;15.70;99.90;;;;;;5064319;28;20048;-47
2021/05/21 01:18:07;;;;;;;0.40;0.40;;;15.50;99.90;;;;;;5063108;28;20021;-50
2021/05/21 01:20:33;;;;;;;0.68;0.60;;;15.60;99.90;;;;;;5064435;28;20044;-50
2021/05/21 01:23:00;;;;;;;0.57;0.40;;;15.50;99.90;;;;;;5064487;28;20025;-49
2021/05/21 01:25:27;;;;;;;0.98;0.47;;;15.60;99.90;;;;;;5064676;28;20028;-46
2021/05/21 01:27:55;;;;;;;0.40;0.40;;;15.60;99.90;;;;;;5064253;28;20062;-47
2021/05/21 01:30:21;;;;;;;0.50;0.30;;;15.70;99.90;;;;;;5064721;28;20456;-47
2021/05/21 01:32:48;;;;;;;0.68;0.30;;;15.90;99.90;;;;;;5062933;28;20033;-47
2021/05/21 01:35:18;;;;;;;0.30;0.30;;;15.80;99.90;;;;;;5067656;28;20388;-49
2021/05/21 01:37:48;;;;;;;1.27;0.40;;;15.80;99.90;;;;;;5069271;28;20028;-48
2021/05/21 01:40:14;;;;;;;0.30;0.30;;;15.60;99.90;;;;;;5069474;28;20560;-51
2021/05/21 01:42:41;;;;;;;0.22;0.22;;;15.60;99.90;;;;;;5068658;28;20031;-49
2021/05/21 01:45:09;;;;;;;0.30;0.30;;;15.80;99.90;;;;;;5067113;28;20547;-49
2021/05/21 01:47:38;;;;;;;0.20;0.20;;;16.00;99.90;;;;;;5068545;28;20027;-49
2021/05/21 01:50:05;;;;;;;0.30;0.30;;;16.00;99.90;;;;;;5068214;28;20054;-47
2021/05/21 01:52:31;;;;;;;0.40;0.40;;;15.90;99.90;;;;;;5068386;28;20025;-48
2021/05/21 01:54:58;;;;;;;1.48;0.50;;;15.70;99.90;;;;;;5068186;28;20033;-47
2021/05/21 01:57:25;;;;;;;0.40;0.40;;;15.60;99.90;;;;;;5065910;28;20110;-51
2021/05/21 01:59:51;;;;;;;0.60;0.40;;;15.60;99.90;;;;;;5068550;28;20068;-47
2021/05/21 02:02:18;;;;;;;0.77;0.50;;;15.60;99.90;;;;;;5067997;28;20020;-46
2021/05/21 02:04:43;;;;;;;0.80;0.50;;;15.60;99.90;;;;;;5068689;28;20073;-49
2021/05/21 02:07:14;;;;;;;1.17;0.43;;;15.60;99.90;;;;;;5067900;28;20028;-47
2021/05/21 02:10:00;;;;;;;0.75;0.40;;;15.50;99.90;;;;;;5068571;28;20128;-49
2021/05/21 02:12:28;;;;;;;0.88;0.43;;;15.50;99.90;;;;;;5068004;28;20063;-47
2021/05/21 02:14:58;;;;;;;0.50;0.45;;;15.60;99.90;;;;;;5068477;28;20032;-46
2021/05/21 02:17:24;;;;;;;0.55;0.50;;;15.60;99.90;;;;;;5067432;28;20025;-46
2021/05/21 02:19:51;;;;;;;0.65;0.55;;;15.60;99.90;;;;;;5067706;28;20452;-50
2021/05/21 02:22:19;;;;;;;1.55;0.50;;;15.50;99.90;;;;;;5067966;28;20027;-47
2021/05/21 02:24:45;;;;;;;1.45;0.80;;;15.50;99.90;;;;;;5067858;28;20091;-49
2021/05/21 02:27:11;;;;;;;0.50;0.45;;;15.50;99.90;;;;;;5066370;28;20035;-50
2021/05/21 02:29:37;;;;;;;1.42;0.60;;;15.40;99.90;;;;;;5067704;28;20029;-47
2021/05/21 02:32:03;;;;;;;2.05;0.70;;;15.40;99.90;;;;;;5067529;28;20025;-50
2021/05/21 02:34:29;;;;;;;0.60;0.50;;;15.50;99.90;;;;;;5067497;28;20154;-49
2021/05/21 02:36:55;;;;;;;0.90;0.52;;;15.50;99.90;;;;;;5065804;28;20025;-50
2021/05/21 02:39:22;;;;;;;0.57;0.57;;;15.40;99.90;;;;;;5066813;28;20059;-47
2021/05/21 02:41:48;;;;;;;0.68;0.50;;;15.40;99.90;;;;;;5067796;28;20037;-46
2021/05/21 02:44:15;;;;;;;0.50;0.50;;;15.40;99.90;;;;;;5067916;28;20036;-46
2021/05/21 02:46:40;;;;;;;0.40;0.40;;;15.40;99.90;;;;;;5066930;28;20439;-45
2021/05/21 02:49:06;;;;;;;1.88;0.52;;;15.40;99.90;;;;;;5067257;28;20107;-48
2021/05/21 02:51:32;;;;;;;2.28;0.55;;;15.40;99.90;;;;;;5066539;28;20628;-48
2021/05/21 02:53:59;;;;;;;1.15;0.60;;;15.30;99.90;;;;;;5067172;28;20044;-48
2021/05/21 02:56:24;;;;;;;3.92;1.10;;;15.00;99.90;;;;;;5067138;28;20036;-46
2021/05/21 02:58:50;;;;;;;3.13;0.82;;;14.70;99.90;;;;;;5067584;28;20025;-47
2021/05/21 03:01:16;;;;;;;1.48;0.80;;;14.50;99.90;;;;;;5067554;28;20056;-48
2021/05/21 03:03:42;;;;;;;2.45;0.68;;;14.40;99.90;;;;;;5067315;28;20513;-48
2021/05/21 03:06:08;;;;;;;1.02;0.50;;;14.40;99.90;;;;;;5066961;28;20033;-50
2021/05/21 03:08:33;;;;;;;0.70;0.60;;;14.30;99.90;;;;;;5067013;28;20183;-50
2021/05/21 03:10:59;;;;;;;0.80;0.63;;;14.30;99.90;;;;;;5066551;28;20040;-51
2021/05/21 03:13:25;;;;;;;0.77;0.65;;;14.30;99.90;;;;;;5067048;28;20028;-51
2021/05/21 03:15:52;;;;;;;0.70;0.60;;;14.20;99.90;;;;;;5066268;28;20078;-52
2021/05/21 03:18:22;;;;;;;3.00;0.70;;;14.30;99.90;;;;;;5066032;28;20423;-48
2021/05/21 03:20:48;;;;;;;0.75;0.60;;;14.30;99.90;;;;;;5066781;28;20024;-47
2021/05/21 03:23:13;;;;;;;0.63;0.52;;;14.30;99.90;;;;;;5067252;28;20025;-51
2021/05/21 03:25:42;;;;;;;0.52;0.40;;;14.30;99.90;;;;;;5066747;28;20088;-49
2021/05/21 03:28:10;;;;;;;0.88;0.50;;;14.50;99.90;;;;;;5066235;28;20078;-46
2021/05/21 03:30:38;;;;;;;1.48;0.60;;;14.40;99.90;;;;;;5066613;28;20020;-48
2021/05/21 03:33:04;;;;;;;0.50;0.50;;;14.50;99.90;;;;;;5066376;28;20063;-48
2021/05/21 03:35:30;;;;;;;1.33;0.60;;;14.70;99.90;;;;;;5066802;28;20494;-49
2021/05/21 03:37:56;;;;;;;1.90;0.73;;;14.60;99.90;;;;;;5066072;28;20078;-48
2021/05/21 03:40:22;;;;;;;2.63;1.08;;;14.50;99.90;;;;;;5066585;28;20035;-47
2021/05/21 03:42:48;;;;;;;1.58;0.68;;;14.40;99.90;;;;;;5065288;28;20021;-50
2021/05/21 03:45:15;;;;;;;2.38;0.73;;;14.40;99.90;;;;;;5067356;28;21160;-48
2021/05/21 03:47:45;;;;;;;1.10;0.50;;;14.40;99.90;;;;;;5065657;28;20116;-47
2021/05/21 03:50:11;;;;;;;1.25;0.60;;;14.50;99.90;;;;;;5066137;28;20040;-47
2021/05/21 03:52:37;;;;;;;1.13;0.68;;;14.60;99.90;;;;;;5066092;28;20056;-46
2021/05/21 03:55:04;;;;;;;0.40;0.40;;;14.70;99.90;;;;;;5065920;28;20052;-47
2021/05/21 03:57:30;;;;;;;0.57;0.57;;;14.70;99.90;;;;;;5065512;28;20267;-47
2021/05/21 03:59:57;;;;;;;1.60;0.50;;;14.70;99.90;;;;;;5064547;28;20427;-48
2021/05/21 04:02:22;;;;;;;0.82;0.43;;;14.80;99.90;;;;;;5065826;28;20032;-47
2021/05/21 04:04:48;;;;;;;1.33;0.70;;;14.80;99.90;;;;;;5066034;28;20017;-47
2021/05/21 04:07:15;;;;;;;1.40;0.90;;;14.80;99.90;;;;;;5066249;28;20390;-46
2021/05/21 04:09:40;;;;;;;1.38;0.80;;;14.80;99.90;;;;;;5066526;28;20029;-46
2021/05/21 04:12:06;;;;;;;1.70;0.80;;;14.80;99.90;;;;;;5065763;28;20039;-47
2021/05/21 04:14:32;;;;;;;1.70;0.80;;;14.70;99.90;;;;;;5065666;28;20042;-47
2021/05/21 04:16:57;;;;;;;2.10;0.75;;;14.70;99.90;;;;;;5063814;28;20036;-48
2021/05/21 04:19:23;;;;;;;0.65;0.60;;;14.70;99.90;;;;;;5064527;28;20032;-46
2021/05/21 04:21:49;;;;;;;1.08;0.68;;;14.70;99.90;;;;;;5065438;28;20048;-46
2021/05/21 04:24:15;;;;;;;2.65;0.70;;;14.70;99.90;;;;;;5065692;28;20036;-48
2021/05/21 04:26:40;;;;;;;1.95;0.75;;;14.80;99.90;;;;;;5066317;28;20025;-50
2021/05/21 04:29:07;;;;;;;1.35;0.75;;;14.80;99.90;;;;;;5064725;28;20040;-50
2021/05/21 04:31:32;;;;;;;1.20;0.70;;;14.70;99.90;;;;;;5065632;28;20107;-50
2021/05/21 04:33:58;;;;;;;1.70;0.88;;;14.70;99.90;;;;;;5065082;28;20531;-46
2021/05/21 04:36:25;;;;;;;0.85;0.68;;;14.70;99.90;;;;;;5065324;28;20398;-47
2021/05/21 04:38:51;;;;;;;3.95;0.80;;;14.70;99.90;;;;;;5065152;28;20044;-48
2021/05/21 04:41:18;;;;;;;2.08;0.80;;;14.70;99.90;;;;;;5064936;28;20082;-47
2021/05/21 04:43:45;;;;;;;0.60;0.60;;;14.70;99.90;;;;;;5065931;28;20099;-47
2021/05/21 04:46:11;;;;;;;0.98;0.70;;;14.70;99.90;;;;;;5064700;28;20052;-49
2021/05/21 04:48:38;;;;;;;1.17;0.85;;;14.70;99.90;;;;;;5064830;28;20507;-48
2021/05/21 04:51:03;;;;;;;1.50;0.75;;;14.70;99.90;;;;;;5064646;28;20379;-47
2021/05/21 04:53:30;;;;;;;2.25;0.50;;;14.70;99.90;;;;;;5063868;28;20066;-50
2021/05/21 04:55:56;;;;;;;0.95;0.70;;;14.70;99.90;;;;;;5064675;28;20518;-47
2021/05/21 04:58:21;;;;;;;0.85;0.70;;;14.70;99.90;;;;;;5064456;28;20060;-47
2021/05/21 05:00:47;;;;;;;0.80;0.60;;;14.80;99.90;;;;;;5063488;28;20031;-48
2021/05/21 05:03:17;;;;;;;1.48;0.68;;;14.80;99.90;;;;;;5065298;28;20040;-46
2021/05/21 05:05:47;;;;;;;0.95;0.57;;;14.80;99.90;;;;;;5064585;28;20055;-46
2021/05/21 05:08:15;;;;;;;0.75;0.60;;;14.70;99.90;;;;;;5064915;28;20514;-47
2021/05/21 05:10:42;;;;;;;2.30;0.75;;;14.80;99.90;;;;;;5065385;28;20024;-47
2021/05/21 05:13:08;;;;;;;0.65;0.65;;;14.80;99.90;;;;;;5064591;28;20032;-48
2021/05/21 05:15:35;;;;;;;0.73;0.57;;;14.70;99.90;;;;;;5064489;28;20055;-47
2021/05/21 05:18:02;;;;;;;1.70;0.55;;;14.60;99.90;;;;;;5064520;28;20021;-47
2021/05/21 05:20:28;;;;;;;1.25;0.70;;;14.60;99.90;;;;;;5064797;28;20514;-49
2021/05/21 05:22:55;;;;;;;1.15;0.57;;;14.60;99.90;;;;;;5063127;28;20363;-47
2021/05/21 05:25:21;;;;;;;0.50;0.50;;;14.60;99.90;;;;;;5064555;28;20107;-46
2021/05/21 05:27:49;;;;;;;1.67;0.80;;;14.60;99.90;;;;;;5064452;28;20040;-47
2021/05/21 05:30:16;;;;;;;1.77;0.60;;;14.60;99.90;;;;;;5064621;28;20107;-47
2021/05/21 05:32:41;;;;;;;1.67;0.60;;;14.60;99.90;;;;;;5065413;28;20367;-46
2021/05/21 05:35:07;;;;;;;1.10;0.65;;;14.60;99.90;;;;;;5062708;28;20526;-47
2021/05/21 05:37:34;;;;;;;1.00;0.90;;;14.60;99.90;;;;;;5064419;28;20043;-47
2021/05/21 05:40:00;;;;;;;1.35;0.70;;;14.60;99.90;;;;;;5062264;28;20028;-48
2021/05/21 05:42:25;;;;;;;1.33;0.85;;;14.70;99.90;;;;;;5065022;28;20032;-47
2021/05/21 05:44:51;;;;;;;0.50;0.50;;;14.70;99.90;;;;;;5064233;28;20036;-49
2021/05/21 05:47:17;;;;;;;2.03;0.60;;;14.70;99.90;;;;;;5063034;28;20029;-47
2021/05/21 05:49:42;;;;;;;2.58;0.55;;;14.70;99.90;;;;;;5063462;28;20037;-47
2021/05/21 05:52:09;;;;;;;0.98;0.50;;;14.70;99.90;;;;;;5064178;28;20025;-50
2021/05/21 05:54:35;;;;;;;1.15;0.50;;;14.70;99.90;;;;;;5064512;28;20025;-48
2021/05/21 05:57:00;;;;;;;0.93;0.68;;;14.80;99.90;;;;;;5062659;28;20035;-51
2021/05/21 05:59:26;;;;;;;2.20;0.60;;;14.80;99.90;;;;;;5065005;28;20016;-51
2021/05/21 06:01:52;;;;;;;1.02;0.60;;;14.80;99.90;;;;;;5063431;28;20593;-46
2021/05/21 06:04:19;;;;;;;1.42;0.52;;;14.80;99.90;;;;;;5063097;28;20025;-48
2021/05/21 06:06:47;;;;;;;1.27;0.85;;;14.80;99.90;;;;;;5064267;28;20033;-47
2021/05/21 06:09:13;;;;;;;3.00;0.60;;;14.80;99.90;;;;;;5063875;28;20074;-47
2021/05/21 06:11:39;;;;;;;1.13;0.68;;;14.90;99.90;;;;;;5063984;28;20106;-46
2021/05/21 06:14:05;;;;;;;0.63;0.47;;;14.90;99.90;;;;;;5064051;28;20024;-47
2021/05/21 06:16:32;;;;;;;0.82;0.50;;;14.90;99.90;;;;;;5062443;28;20021;-47
2021/05/21 06:18:58;;;;;;;0.63;0.47;;;15.00;99.90;;;;;;5062633;28;20051;-46
2021/05/21 06:21:25;;;;;;;1.70;0.60;;;15.00;99.90;;;;;;5065869;28;20028;-47
2021/05/21 06:23:51;;;;;;;0.50;0.50;;;15.10;99.90;;;;;;5068063;28;20032;-46
2021/05/21 06:28:45;;;;;;;1.38;0.68;;;15.40;99.90;;;;;;5066877;28;20048;-47
2021/05/21 06:31:11;;;;;;;0.60;0.60;;;15.40;99.90;;;;;;5067297;28;20028;-47
2021/05/21 06:33:40;;;;;;;1.20;0.70;;;15.40;99.90;;;;;;5066552;28;20040;-47
2021/05/21 06:36:06;;;;;;;0.82;0.52;;;15.50;99.90;;;;;;5066381;28;20024;-46
2021/05/21 06:38:33;;;;;;;1.88;0.70;;;15.40;99.90;;;;;;5067465;28;20048;-47
2021/05/21 06:40:59;;;;;;;1.02;0.70;;;15.50;99.90;;;;;;5064208;28;20025;-46
2021/05/21 06:43:28;;;;;;;2.40;0.65;;;15.50;99.90;;;;;;5067385;28;20513;-48
2021/05/21 06:45:54;;;;;;;0.60;0.40;;;15.50;99.90;;;;;;5067880;28;20503;-47
2021/05/21 06:48:21;;;;;;;1.35;0.70;;;15.50;99.90;;;;;;5067338;28;20552;-47
2021/05/21 06:50:47;;;;;;;1.40;0.60;;;15.50;99.90;;;;;;5067351;28;20020;-50
2021/05/21 06:53:13;;;;;;;2.67;0.90;;;15.60;99.90;;;;;;5066170;28;20044;-46
2021/05/21 06:55:39;;;;;;;0.57;0.45;;;15.60;99.90;;;;;;5066982;28;20024;-47
2021/05/21 06:58:06;;;;;;;1.00;0.50;;;15.60;99.90;;;;;;5066275;28;20482;-47
2021/05/21 07:00:38;;;;;;;0.93;0.43;;;15.70;99.90;;;;;;5067094;28;20028;-47
2021/05/21 07:03:04;;;;;;;1.50;0.55;;;15.70;99.90;;;;;;5066782;28;20028;-45
2021/05/21 07:05:31;;;;;;;0.50;0.50;;;15.80;99.90;;;;;;5067297;28;20025;-46
2021/05/21 07:07:56;;;;;;;2.13;0.70;;;15.80;99.90;;;;;;5066060;28;20032;-47
2021/05/21 07:10:22;;;;;;;0.82;0.60;;;15.80;99.90;;;;;;5067208;28;20114;-47
2021/05/21 07:12:48;;;;;;;1.15;0.60;;;15.90;99.90;;;;;;5067086;28;20078;-46
2021/05/21 07:15:13;;;;;;;2.70;0.50;;;15.90;99.90;;;;;;5066446;28;20050;-46
2021/05/21 07:17:39;;;;;;;2.25;0.80;;;15.90;99.90;;;;;;5064699;28;20035;-47
2021/05/21 07:20:06;;;;;;;2.92;0.77;;;15.90;99.90;;;;;;5066439;28;20056;-46
2021/05/21 07:22:31;;;;;;;1.58;0.47;;;16.00;99.90;;;;;;5066735;28;20070;-46
2021/05/21 07:24:58;;;;;;;1.05;0.57;;;16.00;99.90;;;;;;5051469;28;20025;-46
2021/05/21 07:27:24;;;;;;;1.33;0.73;;;15.90;99.90;;;;;;5063410;28;20036;-47
2021/05/21 07:29:49;;;;;;;0.77;0.55;;;15.90;99.90;;;;;;5067865;28;20029;-50
2021/05/21 07:32:15;;;;;;;0.80;0.60;;;16.00;99.90;;;;;;5067196;28;20036;-47
2021/05/21 07:34:41;;;;;;;2.97;0.73;;;16.00;99.90;;;;;;5067374;28;20082;-47
2021/05/21 07:37:06;;;;;;;3.65;0.80;;;16.00;99.90;;;;;;5066950;28;20487;-46
2021/05/21 07:39:33;;;;;;;1.88;0.60;;;16.00;99.90;;;;;;5066659;28;20445;-47
2021/05/21 07:41:59;;;;;;;0.65;0.50;;;16.10;99.90;;;;;;5067961;28;20021;-47
2021/05/21 07:44:25;;;;;;;1.60;0.60;;;16.10;99.90;;;;;;5064654;28;20024;-46
2021/05/21 07:46:52;;;;;;;0.60;0.50;;;16.10;99.90;;;;;;5063732;28;20032;-47
2021/05/21 07:49:22;;;;;;;2.00;0.70;;;16.20;99.90;;;;;;5064130;28;20094;-47
2021/05/21 07:51:50;;;;;;;1.48;0.70;;;16.20;99.90;;;;;;5066400;28;20036;-47
2021/05/21 07:54:16;;;;;;;1.25;0.45;;;16.30;99.90;;;;;;5054523;28;20078;-47
2021/05/21 07:56:43;;;;;;;1.20;0.40;;;16.40;99.90;;;;;;5046118;28;20025;-46
2021/05/21 07:59:11;;;;;;;0.60;0.60;;;16.40;99.90;;;;;;5046480;28;20024;-46
2021/05/21 08:01:37;;;;;;;1.30;0.75;;;16.50;99.90;;;;;;5045766;28;20118;-47
2021/05/21 08:04:03;;;;;;;1.85;0.50;;;16.50;99.90;;;;;;5045829;28;20170;-46
2021/05/21 08:06:29;;;;;;;1.65;0.77;;;16.50;99.90;;;;;;5056763;28;20545;-47
2021/05/21 08:08:56;;;;;;;0.88;0.47;;;16.50;99.90;;;;;;5065424;28;20024;-48
2021/05/21 08:11:23;;;;;;;1.75;0.65;;;16.40;99.90;;;;;;5065906;28;20518;-47
2021/05/21 08:13:49;;;;;;;2.17;0.80;;;16.40;99.90;;;;;;5061703;28;20082;-50
2021/05/21 08:16:15;;;;;;;1.38;0.73;;;16.50;99.90;;;;;;5064149;28;20036;-49
2021/05/21 08:18:41;;;;;;;0.50;0.50;;;16.40;99.90;;;;;;5066233;28;20028;-50
2021/05/21 08:21:08;;;;;;;1.17;0.50;;;16.40;99.90;;;;;;5065953;28;20568;-50
2021/05/21 08:23:34;;;;;;;1.30;0.63;;;16.50;99.90;;;;;;5063780;28;20025;-47
2021/05/21 08:26:01;;;;;;;0.75;0.50;;;16.50;99.90;;;;;;5065433;28;20206;-47
2021/05/21 08:28:27;;;;;;;1.25;0.70;;;16.50;99.90;;;;;;5063221;28;20024;-47
2021/05/21 08:30:53;;;;;;;1.00;0.60;;;16.50;99.90;;;;;;5064045;28;20048;-46
2021/05/21 08:33:19;;;;;;;0.98;0.50;;;16.50;99.90;;;;;;5065374;28;20048;-46
2021/05/21 08:35:49;;;;;;;3.80;0.80;;;16.60;99.90;;;;;;5065470;28;20028;-48
2021/05/21 08:38:16;;;;;;;1.90;0.70;;;16.60;99.90;;;;;;5063413;28;20458;-47
2021/05/21 08:40:43;;;;;;;0.88;0.40;;;16.60;99.90;;;;;;5065903;28;20099;-48
2021/05/21 08:43:10;;;;;;;1.85;0.50;;;16.60;99.90;;;;;;5064259;28;20028;-47
2021/05/21 08:45:37;;;;;;;0.65;0.47;;;16.70;99.90;;;;;;5064827;28;20449;-51
2021/05/21 08:48:04;;;;;;;0.50;0.40;;;16.70;99.90;;;;;;5063918;28;20056;-50
2021/05/21 08:50:31;;;;;;;0.88;0.30;;;16.70;99.90;;;;;;5065163;28;20024;-48
2021/05/21 08:52:57;;;;;;;1.02;0.43;;;16.80;99.90;;;;;;5063937;28;20090;-46
2021/05/21 08:55:24;;;;;;;0.90;0.40;;;16.80;99.90;;;;;;5062115;28;20082;-46
2021/05/21 08:57:50;;;;;;;0.35;0.30;;;16.90;99.90;;;;;;5064787;28;20388;-46
2021/05/21 09:00:16;;;;;;;0.55;0.50;;;16.90;99.90;;;;;;5064720;28;20017;-47
2021/05/21 09:02:42;;;;;;;0.88;0.40;;;16.90;99.90;;;;;;5065378;28;20028;-48
2021/05/21 09:05:09;;;;;;;1.13;0.30;;;16.90;99.90;;;;;;5065546;28;20145;-46
2021/05/21 09:07:40;;;;;;;1.15;0.60;;;17.00;99.90;;;;;;5064998;28;20032;-47
2021/05/21 09:10:19;;;;;;;0.32;0.30;;;17.00;99.90;;;;;;5063017;28;20372;-47
2021/05/21 09:12:47;;;;;;;0.30;0.30;;;17.20;99.90;;;;;;5064848;28;20542;-48
2021/05/21 09:15:21;;;;;;;0.52;0.40;;;17.20;99.90;;;;;;5064381;28;20326;-47
2021/05/21 09:17:58;;;;;;;0.40;0.40;;;17.20;99.90;;;;;;5064878;28;20033;-49
2021/05/21 09:20:39;;;;;;;0.40;0.30;;;17.30;99.90;;;;;;5064862;28;20415;-46
2021/05/21 09:23:18;;;;;;;0.40;0.40;;;17.40;99.90;;;;;;5064504;28;20082;-47
2021/05/21 09:25:47;;;;;;;1.80;0.95;;;17.50;99.90;;;;;;5064882;28;20540;-49
2021/05/21 09:28:33;;;;;;;0.35;0.35;;;17.50;99.90;;;;;;5045668;28;20021;-47
2021/05/21 09:31:11;;;;;;;0.88;0.60;;;17.50;99.90;;;;;;5045656;28;20029;-46
2021/05/21 09:33:42;;;;;;;1.27;0.93;;;17.60;99.90;;;;;;5065303;28;20506;-46
2021/05/21 09:36:09;;;;;;;0.60;0.60;;;17.40;99.90;;;;;;5063144;28;20037;-46
2021/05/21 09:38:54;;;;;;;0.55;0.47;;;17.40;99.90;;;;;;5064644;28;20017;-46
2021/05/21 09:41:20;;;;;;;0.55;0.50;;;17.50;99.90;;;;;;5060753;28;20475;-46
2021/05/21 09:43:51;;;;;;;0.40;0.40;;;17.60;99.90;;;;;;5064912;28;20032;-46
2021/05/21 09:46:16;;;;;;;2.38;0.40;;;17.60;99.90;;;;;;5072109;28;20125;-47
2021/05/21 09:48:43;;;;;;;0.57;0.43;;;17.70;99.90;;;;;;5064450;28;20040;-47
2021/05/21 09:51:08;;;;;;;0.63;0.47;;;17.70;99.90;;;;;;5077161;28;20398;-47
2021/05/21 09:53:34;;;;;;;0.98;0.45;;;17.80;99.90;;;;;;5084608;28;20034;-47
2021/05/21 09:56:04;;;;;;;0.40;0.35;;;17.90;99.90;;;;;;5086576;28;20020;-49
2021/05/21 09:58:40;;;;;;;0.40;0.40;;;18.10;99.90;;;;;;5088381;28;20020;-47
2021/05/21 10:01:09;;;;;;;1.10;0.77;;;18.10;99.90;;;;;;5073603;28;20028;-47
2021/05/21 10:03:36;;;;;;;0.85;0.32;;;17.90;99.90;;;;;;5068313;28;20021;-46
2021/05/21 10:06:03;;;;;;;0.40;0.40;;;17.80;99.90;;;;;;5068049;28;20490;-47
2021/05/21 10:08:30;;;;;;;0.40;0.40;;;17.80;99.90;;;;;;5067671;28;20035;-50
2021/05/21 10:10:56;;;;;;;0.50;0.32;;;18.10;99.90;;;;;;5067424;28;20047;-50
2021/05/21 10:13:21;;;;;;;0.30;0.30;;;18.10;99.90;;;;;;5068142;28;20021;-49
2021/05/21 10:15:51;;;;;;;0.82;0.40;;;18.20;99.90;;;;;;5067295;28;20275;-49
2021/05/21 10:18:17;;;;;;;0.30;0.30;;;18.30;99.90;;;;;;5067471;28;20154;-49
2021/05/21 10:20:44;;;;;;;0.40;0.40;;;18.30;99.90;;;;;;5067808;28;20498;-49
2021/05/21 10:23:16;;;;;;;0.30;0.30;;;18.20;99.90;;;;;;5068048;28;20066;-48
2021/05/21 10:25:42;;;;;;;0.32;0.32;;;18.20;99.90;;;;;;5068004;28;20024;-48
2021/05/21 10:28:09;;;;;;;0.85;0.38;;;18.30;99.90;;;;;;5066507;28;20562;-50
2021/05/21 10:30:36;;;;;;;0.70;0.38;;;18.10;99.90;;;;;;5062417;28;20028;-51
2021/05/21 10:33:33;;;;;;;0.30;0.30;;;18.30;99.90;;;;;;5065625;28;20028;-46
2021/05/21 10:36:23;;;;;;;0.70;0.40;;;18.20;99.90;;;;;;5066301;28;20074;-47
2021/05/21 10:39:08;;;;;;;1.50;0.40;;;18.10;99.90;;;;;;5067489;28;20024;-47
2021/05/21 10:41:37;;;;;;;0.73;0.40;;;18.30;99.90;;;;;;5064396;28;20515;-47
2021/05/21 10:44:21;;;;;;;0.38;0.30;;;18.20;99.90;;;;;;5066627;28;20067;-48
2021/05/21 10:46:51;;;;;;;;;;;18.30;99.90;;;;;;5047677;28;20029;-51
2021/05/21 10:49:22;;;;;;;0.30;0.30;;;18.30;99.90;;;;;;5046832;28;19939;-49
2021/05/21 10:52:00;;;;;;;0.30;0.20;;;18.30;99.90;;;;;;5047216;28;20029;-50
2021/05/21 10:54:40;;;;;;;0.40;0.30;;;18.30;99.90;;;;;;5047185;28;20028;-51
2021/05/21 10:57:16;;;;;;;0.68;0.50;;;18.40;99.90;;;;;;5046579;28;20047;-47
2021/05/21 10:59:55;;;;;;;0.95;0.30;;;18.30;99.90;;;;;;5047194;28;20025;-50
2021/05/21 11:02:24;;;;;;;0.30;0.30;;;18.10;99.90;;;;;;5046843;28;20017;-49
2021/05/21 11:04:51;;;;;;;0.28;0.28;;;17.90;99.90;;;;;;5047193;28;20337;-47
2021/05/21 11:07:34;;;;;;;0.45;0.30;;;18.00;99.90;;;;;;5046119;28;20152;-47
2021/05/21 11:10:00;;;;;;;0.30;0.30;;;18.00;99.90;;;;;;5046273;28;20054;-48
2021/05/21 11:13:00;;;;;;;0.35;0.30;;;18.00;99.90;;;;;;5046992;28;20032;-47
2021/05/21 11:15:42;;;;;;;0.30;0.20;;;17.90;99.90;;;;;;5012641;28;20043;-47
2021/05/21 11:18:20;;;;;;;0.22;0.22;;;18.00;99.90;;;;;;5047084;28;20029;-50
2021/05/21 11:20:56;;;;;;;0.40;0.40;;;18.10;99.90;;;;;;5046803;28;20024;-47
2021/05/21 11:23:44;;;;;;;0.38;0.30;;;18.40;99.90;;;;;;5046239;28;20021;-47
2021/05/21 11:26:15;;;;;;;0.55;0.30;;;18.50;99.90;;;;;;5034286;28;20049;-47
2021/05/21 11:28:41;;;;;;;0.38;0.30;;;18.60;99.90;;;;;;5046962;28;20120;-46
2021/05/21 11:31:11;;;;;;;0.35;0.30;;;18.60;99.90;;;;;;5045993;28;20200;-51
2021/05/21 11:33:38;;;;;;;0.30;0.30;;;19.00;99.90;;;;;;5046675;28;20023;-49
2021/05/21 11:36:08;;;;;;;0.35;0.35;;;19.10;99.90;;;;;;5046041;28;20518;-48
2021/05/21 11:38:38;;;;;;;0.30;0.30;;;19.10;99.90;;;;;;5060379;28;20520;-51
2021/05/21 11:41:08;;;;;;;0.40;0.40;;;19.30;99.90;;;;;;5066216;28;20048;-47
2021/05/21 11:43:42;;;;;;;0.45;0.40;;;19.50;99.90;;;;;;5065159;28;20513;-51
2021/05/21 11:46:15;;;;;;;;;;;19.60;99.90;;;;;;5067024;28;20090;-47
2021/05/21 11:48:42;;;;;;;1.15;0.50;;;19.80;99.90;;;;;;5065853;28;20298;-51
2021/05/21 11:51:15;;;;;;;0.50;0.50;;;20.00;99.90;;;;;;5066266;28;20122;-48
2021/05/21 11:53:50;;;;;;;0.50;0.40;;;20.30;99.90;;;;;;5063578;28;20035;-48
2021/05/21 11:56:27;;;;;;;0.40;0.40;;;20.30;99.90;;;;;;5065471;28;20370;-47
2021/05/21 11:59:00;;;;;;;0.50;0.40;;;20.50;99.90;;;;;;5065439;28;20044;-47
2021/05/21 12:01:27;;;;;;;0.40;0.40;;;20.80;99.90;;;;;;5065947;28;20024;-47
2021/05/21 12:03:53;;;;;;;1.92;0.50;;;21.00;99.90;;;;;;5065782;28;20029;-49
2021/05/21 12:06:18;;;;;;;3.03;0.75;;;20.80;99.90;;;;;;5065341;28;20032;-48
2021/05/21 12:08:47;;;;;;;0.63;0.60;;;20.60;99.90;;;;;;5065715;28;20079;-48
2021/05/21 12:11:13;;;;;;;2.08;0.57;;;20.60;99.90;;;;;;5065108;28;20507;-48
2021/05/21 12:13:41;;;;;;;1.35;0.60;;;20.60;99.90;;;;;;5065137;28;20140;-47
2021/05/21 12:16:11;;;;;;;2.83;0.70;;;20.50;99.90;;;;;;5064928;28;20021;-47
2021/05/21 12:18:37;;;;;;;0.73;0.40;;;20.20;99.90;;;;;;5065064;28;20036;-47
2021/05/21 12:21:03;;;;;;;0.50;0.40;;;20.20;99.90;;;;;;5064954;28;20032;-47
2021/05/21 12:23:38;;;;;;;2.53;0.50;;;19.90;99.90;;;;;;5065276;28;20040;-47
2021/05/21 12:26:10;;;;;;;1.80;0.57;;;19.80;99.90;;;;;;5064877;28;20028;-50
2021/05/21 12:28:37;;;;;;;2.00;0.50;;;19.70;99.90;;;;;;5065749;28;20271;-46
2021/05/21 12:31:04;;;;;;;1.02;0.60;;;19.60;99.90;;;;;;5064917;28;20028;-47
2021/05/21 12:33:35;;;;;;;1.70;0.60;;;19.50;99.90;;;;;;5065225;28;20467;-50
2021/05/21 12:36:12;;;;;;;1.05;0.50;;;19.40;99.90;;;;;;5064615;28;20455;-49
2021/05/21 12:38:39;;;;;;;1.40;0.60;;;19.40;99.90;;;;;;5065657;28;20133;-49
2021/05/21 12:41:05;;;;;;;1.15;0.50;;;19.20;99.90;;;;;;5064851;28;20503;-49
2021/05/21 12:43:32;;;;;;;0.90;0.50;;;19.10;99.90;;;;;;5064983;28;20016;-49
2021/05/21 12:46:04;;;;;;;1.05;0.60;;;19.10;99.90;;;;;;5064731;28;20034;-48
2021/05/21 12:48:41;;;;;;;2.30;0.50;;;19.00;99.90;;;;;;5064843;28;20021;-49
2021/05/21 12:51:29;;;;;;;1.58;0.70;;;19.10;99.90;;;;;;5065062;28;20020;-49
2021/05/21 12:54:26;;;;;;;1.50;0.60;;;19.10;99.90;;;;;;5053215;28;20044;-48
2021/05/21 12:56:59;;;;;;;2.42;0.70;;;19.20;99.90;;;;;;5056067;28;20056;-49